createdAt,value
2023-01-19T00:02:23.985Z,98989.97
2023-01-19T00:05:30.309Z,98995.44
2023-01-19T00:08:55.825Z,98986.88
2023-01-19T00:12:19.894Z,98990.34
2023-01-19T00:15:40.606Z,98987.69
2023-01-19T00:19:04.732Z,98981.69
2023-01-19T00:22:31.342Z,98987.88
2023-01-19T00:25:43.875Z,98991.84
2023-01-19T00:29:08.733Z,98988.16
2023-01-19T00:32:32.875Z,98979.50
2023-01-19T00:36:08.170Z,98980.22
2023-01-19T00:39:24.232Z,98988.84
2023-01-19T00:42:44.261Z,98982.91
2023-01-19T00:45:52.583Z,98981.31
2023-01-19T00:48:57.492Z,98984.88
2023-01-19T00:52:05.443Z,98988.06
2023-01-19T00:55:11.023Z,98985.66
2023-01-19T00:58:26.988Z,98978.53
2023-01-19T01:01:55.534Z,98970.41
2023-01-19T01:05:19.446Z,98972.66
2023-01-19T01:09:03.795Z,98971.06
2023-01-19T01:12:24.544Z,98969.19
2023-01-19T01:15:37.333Z,98968.41
2023-01-19T01:18:40.727Z,98964.47
2023-01-19T01:21:55.909Z,98962.28
2023-01-19T01:25:13.616Z,98967.78
2023-01-19T01:28:29.479Z,98971.16
2023-01-19T01:31:51.402Z,98975.94
2023-01-19T01:35:11.998Z,98969.66
2023-01-19T01:38:22.171Z,98968.56
2023-01-19T01:41:31.662Z,98961.78
2023-01-19T01:44:52.673Z,98963.19
2023-01-19T01:48:22.823Z,98971.75
2023-01-19T01:52:01.403Z,98973.97
2023-01-19T01:55:20.112Z,98976.88
2023-01-19T01:58:40.899Z,98982.03
2023-01-19T02:02:04.242Z,98983.59
2023-01-19T02:05:43.527Z,98999.84
2023-01-19T02:09:43.862Z,99012.66
2023-01-19T02:13:21.647Z,99012.28
2023-01-19T02:16:34.389Z,98995.06
2023-01-19T02:19:47.930Z,98954.13
2023-01-19T02:23:46.823Z,98947.88
2023-01-19T02:27:20.998Z,98957.38
2023-01-19T02:30:45.919Z,98987.91
2023-01-19T02:33:54.755Z,99014.78
2023-01-19T02:37:28.849Z,99010.78
2023-01-19T02:40:57.773Z,98989.00
2023-01-19T02:44:13.984Z,98981.66
2023-01-19T02:47:32.001Z,98975.19
2023-01-19T02:50:56.230Z,98960.84
2023-01-19T02:54:18.158Z,98952.13
2023-01-19T02:57:49.214Z,98955.84
2023-01-19T03:01:38.970Z,98979.78
2023-01-19T03:05:05.920Z,98983.13
2023-01-19T03:08:38.441Z,98986.03
2023-01-19T03:11:51.685Z,98986.91
2023-01-19T03:15:02.526Z,98978.56
2023-01-19T03:18:15.452Z,98996.56
2023-01-19T03:21:22.307Z,99014.56
2023-01-19T03:24:29.445Z,99023.97
2023-01-19T03:27:56.084Z,99026.38
2023-01-19T03:31:31.127Z,98992.28
2023-01-19T03:34:51.128Z,98970.63
2023-01-19T03:38:11.215Z,98960.88
2023-01-19T03:41:45.086Z,98939.97
2023-01-19T03:45:07.250Z,98922.06
2023-01-19T03:48:18.337Z,98941.25
2023-01-19T03:51:40.490Z,98940.53
2023-01-19T03:54:50.885Z,98957.59
2023-01-19T03:58:14.124Z,98955.69
2023-01-19T04:01:43.253Z,98971.50
2023-01-19T04:05:05.189Z,98986.81
2023-01-19T04:08:34.044Z,98994.50
2023-01-19T04:11:58.045Z,98958.38
2023-01-19T04:15:19.059Z,98984.94
2023-01-19T04:18:42.153Z,98987.03
2023-01-19T04:22:04.284Z,98992.28
2023-01-19T04:25:25.950Z,98988.91
2023-01-19T04:28:45.220Z,98987.63
2023-01-19T04:32:10.310Z,98986.97
2023-01-19T04:35:14.439Z,98978.91
2023-01-19T04:38:18.236Z,98984.06
2023-01-19T04:41:27.158Z,98969.97
2023-01-19T04:44:43.432Z,98965.13
2023-01-19T04:48:05.947Z,98959.88
2023-01-19T04:51:19.489Z,98972.09
2023-01-19T04:54:23.111Z,98953.16
2023-01-19T04:57:33.433Z,98969.97
2023-01-19T05:00:40.163Z,98976.19
2023-01-19T05:04:01.193Z,98993.66
2023-01-19T05:07:14.322Z,98996.09
2023-01-19T05:10:20.314Z,99007.63
2023-01-19T05:13:33.840Z,99007.34
2023-01-19T05:16:51.959Z,98992.97
2023-01-19T05:20:03.989Z,99001.75
2023-01-19T05:23:28.543Z,99019.25
2023-01-19T05:26:55.612Z,99028.97
2023-01-19T05:30:11.540Z,99033.81
2023-01-19T05:33:35.780Z,99028.53
2023-01-19T05:37:06.682Z,99026.34
2023-01-19T05:40:23.611Z,99037.69
2023-01-19T05:43:35.599Z,99033.50
2023-01-19T05:46:58.869Z,99014.34
2023-01-19T05:50:05.408Z,99011.00
2023-01-19T05:53:23.991Z,99006.72
2023-01-19T05:56:37.282Z,99015.56
2023-01-19T05:59:41.886Z,99013.91
2023-01-19T06:02:53.838Z,98976.72
2023-01-19T06:06:01.532Z,98986.16
2023-01-19T06:09:10.790Z,98989.31
2023-01-19T06:12:27.766Z,98994.00
2023-01-19T06:15:44.708Z,98976.81
2023-01-19T06:19:01.552Z,98977.38
2023-01-19T06:22:24.690Z,98987.03
2023-01-19T06:26:01.755Z,98983.16
2023-01-19T06:29:18.670Z,98971.50
2023-01-19T06:32:34.935Z,98975.94
2023-01-19T06:36:00.787Z,98979.38
2023-01-19T06:39:14.612Z,98992.25
2023-01-19T06:42:23.912Z,99013.94
2023-01-19T06:45:34.405Z,99021.72
2023-01-19T06:48:49.650Z,99021.31
2023-01-19T06:52:13.727Z,99020.22
2023-01-19T06:55:36.632Z,99010.69
2023-01-19T06:58:55.345Z,99008.88
2023-01-19T07:07:18.807Z,99012.53
2023-01-19T07:11:26.101Z,99001.72
2023-01-19T07:14:24.397Z,98991.84
2023-01-19T07:17:35.252Z,98991.09
2023-01-19T07:20:42.060Z,98986.25
2023-01-19T07:24:00.475Z,99022.91
2023-01-19T07:27:34.467Z,99029.13
2023-01-19T07:30:59.753Z,99029.44
2023-01-19T07:34:27.799Z,99030.59
2023-01-19T07:37:36.140Z,99021.28
2023-01-19T07:41:03.811Z,99015.25
2023-01-19T07:44:36.426Z,99023.75
2023-01-19T07:47:40.612Z,99031.88
2023-01-19T07:57:01.631Z,99040.47
2023-01-19T08:00:19.007Z,99046.91
2023-01-19T08:03:28.685Z,99040.63
2023-01-19T08:06:39.500Z,99043.31
2023-01-19T08:09:44.716Z,99053.44
2023-01-19T08:13:31.952Z,99035.59
2023-01-19T08:16:36.746Z,99029.13
2023-01-19T08:19:53.452Z,99021.88
2023-01-19T08:23:05.712Z,99018.03
2023-01-19T08:26:25.134Z,99026.31
2023-01-19T08:29:34.045Z,99020.72
2023-01-19T08:32:39.008Z,99018.47
2023-01-19T08:35:55.813Z,99024.34
2023-01-19T08:43:41.059Z,99039.13
2023-01-19T08:53:12.960Z,99047.03
2023-01-19T09:02:17.541Z,99041.66
2023-01-19T09:05:51.343Z,99038.69
2023-01-19T09:10:04.505Z,99026.78
2023-01-19T09:13:49.518Z,99031.75
2023-01-19T09:21:59.374Z,99031.09
2023-01-19T09:25:28.525Z,99046.41
2023-01-19T09:28:49.615Z,99036.75
2023-01-19T09:32:25.913Z,99032.28
2023-01-19T09:36:27.431Z,99038.78
2023-01-19T09:41:08.901Z,99036.59
2023-01-19T09:45:42.384Z,99039.16
2023-01-19T09:49:35.219Z,99026.16
2023-01-19T09:53:21.477Z,99023.00
2023-01-19T10:02:19.528Z,99036.97
2023-01-19T10:06:07.676Z,99038.41
2023-01-19T10:14:41.971Z,99040.38
2023-01-19T10:28:46.174Z,99059.34
2023-01-19T10:52:03.566Z,99071.53
2023-01-19T10:55:23.904Z,99073.28
2023-01-19T10:58:31.304Z,99069.25
2023-01-19T11:02:42.384Z,99080.25
2023-01-19T11:10:23.519Z,99081.25
2023-01-19T11:19:27.849Z,99083.78
2023-01-19T11:23:29.012Z,99086.66
2023-01-19T11:27:26.045Z,99072.50
2023-01-19T11:31:14.703Z,99076.94
2023-01-19T11:34:33.498Z,99064.41
2023-01-19T11:38:03.817Z,99088.31
2023-01-19T11:41:20.759Z,99091.56
2023-01-19T11:44:40.130Z,99096.22
2023-01-19T11:48:17.581Z,99087.97
2023-01-19T11:51:36.830Z,99092.28
2023-01-19T11:55:38.046Z,99096.13
2023-01-19T11:59:01.282Z,99099.59
2023-01-19T12:02:58.456Z,99100.38
2023-01-19T12:07:01.791Z,99107.66
2023-01-19T12:10:22.697Z,99115.78
2023-01-19T12:20:02.350Z,99127.00
2023-01-19T12:23:12.025Z,99136.78
2023-01-19T12:26:43.054Z,99127.66
2023-01-19T12:30:04.385Z,99137.22
2023-01-19T12:33:26.398Z,99151.41
2023-01-19T12:36:45.857Z,99157.75
2023-01-19T12:40:34.885Z,99143.38
2023-01-19T12:43:40.841Z,99157.59
2023-01-19T12:47:06.742Z,99156.03
2023-01-19T12:50:46.374Z,99164.66
2023-01-19T12:54:35.015Z,99167.34
2023-01-19T13:07:19.838Z,99175.16
2023-01-19T13:10:59.945Z,99189.72
2023-01-19T13:14:03.689Z,99193.41
2023-01-19T13:27:38.772Z,99231.63
2023-01-19T13:31:04.763Z,99231.97
2023-01-19T13:34:15.230Z,99238.59
2023-01-19T13:38:01.910Z,99245.31
2023-01-19T13:41:05.203Z,99254.63
2023-01-19T13:44:29.471Z,99248.63
2023-01-19T13:47:44.555Z,99269.66
2023-01-19T13:56:33.968Z,99281.94
2023-01-19T14:04:33.141Z,99288.50
2023-01-19T14:08:18.809Z,99292.28
2023-01-19T14:11:25.012Z,99292.28
2023-01-19T14:25:39.950Z,99268.72
2023-01-19T14:28:51.288Z,99277.19
2023-01-19T14:32:00.961Z,99282.59
2023-01-19T14:35:05.095Z,99293.09
2023-01-19T14:38:14.597Z,99311.63
2023-01-19T14:41:30.863Z,99300.97
2023-01-19T14:44:52.433Z,99297.88
2023-01-19T14:48:17.886Z,99314.03
2023-01-19T14:51:37.549Z,99322.25
2023-01-19T14:54:54.521Z,99316.00
2023-01-19T14:58:33.890Z,99327.66
2023-01-19T15:01:44.638Z,99334.13
2023-01-19T15:05:10.739Z,99350.13
2023-01-19T15:08:29.472Z,99379.03
2023-01-19T15:11:45.284Z,99384.97
2023-01-19T15:15:02.767Z,99394.25
2023-01-19T15:18:15.696Z,99397.75
2023-01-19T15:21:23.857Z,99391.84
2023-01-19T15:24:37.024Z,99395.38
2023-01-19T15:27:58.918Z,99385.91
2023-01-19T15:31:16.255Z,99381.97
2023-01-19T15:34:32.296Z,99390.81
2023-01-19T15:37:53.136Z,99398.63
2023-01-19T15:41:18.972Z,99405.59
2023-01-19T15:44:42.130Z,99411.28
2023-01-19T15:48:09.132Z,99403.72
2023-01-19T15:51:37.142Z,99408.88
2023-01-19T15:54:57.161Z,99424.94
2023-01-19T15:58:13.898Z,99429.22
2023-01-19T16:01:40.271Z,99425.47
2023-01-19T16:05:01.842Z,99453.06
2023-01-19T16:08:18.844Z,99462.44
2023-01-19T16:11:42.080Z,99461.66
2023-01-19T16:15:03.159Z,99459.25
2023-01-19T16:18:28.292Z,99473.19
2023-01-19T16:21:54.960Z,99489.50
2023-01-19T16:25:16.931Z,99487.06
2023-01-19T16:28:34.194Z,99493.78
2023-01-19T16:31:54.110Z,99500.22
2023-01-19T16:35:17.466Z,99509.88
2023-01-19T16:38:33.042Z,99521.94
2023-01-19T16:42:08.004Z,99524.59
2023-01-19T16:45:32.200Z,99541.75
2023-01-19T16:48:54.113Z,99558.91
2023-01-19T16:52:17.079Z,99566.41
2023-01-19T16:55:38.313Z,99566.97
2023-01-19T16:58:42.206Z,99570.16
2023-01-19T17:01:46.618Z,99568.81
2023-01-19T17:05:00.795Z,99579.53
2023-01-19T17:08:03.827Z,99575.50
2023-01-19T17:11:13.311Z,99580.06
2023-01-19T17:14:20.582Z,99597.78
2023-01-19T17:17:32.972Z,99602.34
2023-01-19T17:20:49.118Z,99607.41
2023-01-19T17:24:08.914Z,99625.13
2023-01-19T17:28:51.537Z,99622.16
2023-01-19T17:31:58.948Z,99631.28
2023-01-19T17:35:20.540Z,99636.66
2023-01-19T17:38:41.579Z,99632.38
2023-01-19T17:41:51.708Z,99630.50
2023-01-19T17:45:09.269Z,99628.78
2023-01-19T17:48:26.015Z,99633.31
2023-01-19T17:51:48.808Z,99639.06
2023-01-19T17:55:11.542Z,99633.66
2023-01-19T17:58:15.710Z,99644.38
2023-01-19T18:01:28.619Z,99625.06
2023-01-19T18:04:39.842Z,99644.41
2023-01-19T18:07:43.318Z,99646.56
2023-01-19T18:10:57.701Z,99639.28
2023-01-19T18:14:11.777Z,99659.69
2023-01-19T18:17:29.722Z,99640.06
2023-01-19T18:20:50.705Z,99650.22
2023-01-19T18:24:00.193Z,99660.56
2023-01-19T18:27:24.715Z,99668.47
2023-01-19T18:30:57.714Z,99649.06
2023-01-19T18:34:14.893Z,99655.47
2023-01-19T18:37:33.457Z,99665.72
2023-01-19T18:40:56.690Z,99673.56
2023-01-19T18:44:27.750Z,99669.25
2023-01-19T18:47:50.795Z,99675.38
2023-01-19T18:51:13.735Z,99667.59
2023-01-19T18:54:30.976Z,99672.16
2023-01-19T18:57:48.591Z,99680.63
2023-01-19T19:01:13.797Z,99672.34
2023-01-19T19:04:42.695Z,99677.78
2023-01-19T19:08:03.713Z,99685.56
2023-01-19T19:11:23.931Z,99689.09
2023-01-19T19:14:40.867Z,99699.56
2023-01-19T19:17:59.756Z,99696.19
2023-01-19T19:21:07.575Z,99710.81
2023-01-19T19:24:13.520Z,99715.44
2023-01-19T19:27:24.225Z,99713.13
2023-01-19T19:30:47.560Z,99724.09
2023-01-19T19:34:09.491Z,99738.00
2023-01-19T19:37:29.541Z,99738.28
2023-01-19T19:41:00.167Z,99749.50
2023-01-19T19:44:21.215Z,99752.31
2023-01-19T19:47:44.571Z,99763.75
2023-01-19T19:51:17.604Z,99779.09
2023-01-19T19:54:32.340Z,99769.47
2023-01-19T19:57:36.203Z,99774.44
2023-01-19T20:00:40.200Z,99768.53
2023-01-19T20:03:56.427Z,99774.47
2023-01-19T20:07:07.967Z,99780.84
2023-01-19T20:10:11.577Z,99774.53
2023-01-19T20:13:19.305Z,99775.63
2023-01-19T20:16:26.735Z,99784.69
2023-01-19T20:19:45.767Z,99785.66
2023-01-19T20:22:56.095Z,99774.78
2023-01-19T20:26:05.107Z,99792.81
2023-01-19T20:29:10.412Z,99779.63
2023-01-19T20:32:26.769Z,99776.69
2023-01-19T20:35:43.357Z,99780.25
2023-01-19T20:38:50.837Z,99783.13
2023-01-19T20:41:54.850Z,99785.97
2023-01-19T20:45:09.574Z,99778.34
2023-01-19T20:48:28.239Z,99789.06
2023-01-19T20:51:51.502Z,99794.88
2023-01-19T20:54:54.768Z,99793.16
2023-01-19T20:58:02.681Z,99787.75
2023-01-19T21:01:24.939Z,99779.84
2023-01-19T21:04:30.545Z,99773.66
2023-01-19T21:07:46.710Z,99779.97
2023-01-19T21:11:03.477Z,99788.44
2023-01-19T21:14:30.349Z,99783.50
2023-01-19T21:17:46.762Z,99799.47
2023-01-19T21:21:28.489Z,99797.34
2023-01-19T21:24:40.005Z,99798.66
2023-01-19T21:27:50.946Z,99795.00
2023-01-19T21:31:14.485Z,99793.97
2023-01-19T21:34:43.189Z,99808.25
2023-01-19T21:38:07.269Z,99793.91
2023-01-19T21:41:16.769Z,99800.84
2023-01-19T21:44:26.594Z,99808.91
2023-01-19T21:47:36.532Z,99828.53
2023-01-19T21:50:43.376Z,99852.78
2023-01-19T21:54:02.857Z,99883.22
2023-01-19T21:57:06.442Z,99911.84
2023-01-19T22:00:11.126Z,99919.44
2023-01-19T22:03:32.081Z,99897.69
2023-01-19T22:06:49.214Z,99884.31
2023-01-19T22:09:58.921Z,99861.06
2023-01-19T22:13:02.196Z,99851.94
2023-01-19T22:16:18.680Z,99848.75
2023-01-19T22:19:35.120Z,99850.84
2023-01-19T22:22:41.601Z,99856.22
2023-01-19T22:25:45.580Z,99862.38
2023-01-19T22:28:53.491Z,99863.75
2023-01-19T22:32:09.045Z,99850.44
2023-01-19T22:35:35.084Z,99846.63
2023-01-19T22:38:51.948Z,99862.69
2023-01-19T22:42:14.987Z,99864.28
2023-01-19T22:45:42.099Z,99856.16
2023-01-19T22:49:06.963Z,99836.38
2023-01-19T22:52:28.040Z,99830.88
2023-01-19T22:55:48.961Z,99854.09
2023-01-19T22:59:11.959Z,99847.34
2023-01-19T23:02:28.147Z,99845.03
2023-01-19T23:05:49.028Z,99852.44
2023-01-19T23:09:19.168Z,99845.78
2023-01-19T23:12:39.024Z,99828.53
2023-01-19T23:16:02.207Z,99813.13
2023-01-19T23:19:20.054Z,99797.31
2023-01-19T23:22:30.889Z,99806.47
2023-01-19T23:25:38.126Z,99808.41
2023-01-19T23:28:44.167Z,99809.78
2023-01-19T23:32:01.005Z,99820.91
2023-01-19T23:35:11.876Z,99823.78
2023-01-19T23:38:28.181Z,99827.25
2023-01-19T23:41:44.857Z,99836.75
2023-01-19T23:44:48.502Z,99844.09
2023-01-19T23:47:55.400Z,99842.53
2023-01-19T23:51:17.159Z,99845.53
2023-01-19T23:54:36.929Z,99846.78
2023-01-19T23:57:43.969Z,99849.53
